• Join FlightAware (Why Join?)
  • Login
  • US Flag 
09:57AM EDT


 

Airport Tracker/Info


-or-


 

Live Flight TrackerFlight Track Log ✈ UAL495 ✈ 18-Apr-2013 ✈ KDEN - KIAD

Flight Track Log - Related Links

Times and Time Zones

All times are in EDT time to prevent confusion due to time zone crossing. See the UAL495 flight status page for this flight to view local times or setup timezone preferences in your user account.

Time Position Orientation Groundspeed Altitude Reporting Facility
EDT Latitude Longitude Course Direction KTS MPH feet Rate Location/Type
12:37PM 39.8667 -104.5667 107° East 206 237 6,900  Level Denver TRACON
12:38PM 39.8606 -104.5422 108° East 216 249 7,500 1,740 Climbing Denver Center
12:39PM 39.7102 -104.2138 113° Southeast  Level FlightAware Approximate
12:39PM 39.8283 -104.4456 113° Southeast 271 312 9,400  Level Denver Center
12:40PM 39.6687 -104.0601 105° East  Level FlightAware Approximate
12:40PM 39.7900 -104.3381 115° Southeast 326 375 11,200  Level Denver Center
12:41PM 39.6200 -103.9098 113° Southeast  Level FlightAware Approximate
12:41PM 39.7475 -104.2119 114° Southeast 388 447 12,300  Level Denver Center
12:42PM 39.5717 -103.7600 123° Southeast  Level FlightAware Approximate
12:42PM 39.6956 -104.0636 114° Southeast 421 484 15,100  Level Denver Center
12:43PM 39.5333 -103.6052 107° East  Level FlightAware Approximate
12:43PM 39.6464 -103.9261 115° Southeast 423 487 17,200  Level Denver Center
12:44PM 39.5897 -103.7869 118° Southeast 433 498 19,300 1,860 Climbing Denver Center
12:45PM 39.5486 -103.6256 108° East 432 497 21,100 1,740 Climbing Denver Center
12:46PM 39.5072 -103.4669 109° East 457 526 22,900 1,560 Climbing Denver Center
12:47PM 39.4647 -103.3064 109° East 466 536 24,400 1,380 Climbing Denver Center
12:48PM 39.4208 -103.1425 109° East 477 549 25,800 1,260 Climbing Denver Center
12:49PM 39.3758 -102.9758 109° East 484 557 27,000 1,380 Climbing Denver Center
12:50PM 39.3294 -102.8094 110° East 487 560 28,700 1,320 Climbing Denver Center
12:51PM 39.2775 -102.6153 109° East 493 567 29,800 1,080 Climbing Denver Center
12:52PM 39.2342 -102.4553 109° East 494 568 31,000 540 Climbing Denver Center
12:53PM 39.1903 -102.2947 109° East 496 571 31,000  Level Denver Center
12:54PM 39.1383 -102.1106 110° East 490 564 31,000  Level Denver Center
12:55PM 39.0939 -101.9514 110° East 492 566 31,000  Level Denver Center
12:56PM 39.0419 -101.7689 110° East 488 562 31,000  Level Denver Center
12:57PM 38.9967 -101.6125 110° East 486 559 31,000  Level Denver Center
12:58PM 38.9450 -101.4303 110° East 487 560 31,000  Level Denver Center
12:59PM 38.8997 -101.2733 110° East 488 562 31,000  Level Denver Center
01:00PM 38.8439 -101.0906 111° Southeast 491 565 31,000  Level Denver Center
01:01PM 38.7972 -100.9328 111° Southeast 493 567 31,000  Level Denver Center
01:02PM 38.7506 -100.7722 110° East 498 573 31,000  Level Denver Center
01:04PM 38.6942 -100.5844 111° Southeast 505 581 31,000  Level Denver Center
01:05PM 38.6458 -100.4256 111° Southeast 501 577 31,000  Level Denver Center
01:06PM 38.5894 -100.2381 111° Southeast 503 579 31,000 180 Level Denver Center
01:07PM 38.5411 -100.0778 111° Southeast 504 580 31,400 720 Climbing Denver Center
01:08PM 38.4856 -99.8925 111° Southeast 500 575 32,500 780 Climbing Denver Center
01:08PM 38.4439 -99.7611 112° Southeast 495 570 32,900 240 Climbing Kansas City Center
01:09PM 38.3964 -99.6017 111° Southeast 499 574 33,000  Climbing Kansas City Center
01:11PM 38.3411 -99.4272 112° Southeast 510 587 33,000  Level Kansas City Center
01:12PM 38.2892 -99.2622 112° Southeast 506 582 33,000  Level Kansas City Center
01:13PM 38.2353 -99.0975 113° Southeast 503 579 33,000  Level Kansas City Center
01:14PM 38.1833 -98.9356 112° Southeast 498 573 33,000  Level Kansas City Center
01:15PM 38.1333 -98.7711 111° Southeast 501 577 33,000  Level Kansas City Center
01:16PM 38.0800 -98.6083 113° Southeast 501 577 33,000  Level Kansas City Center
01:17PM 38.0292 -98.4453 112° Southeast 500 575 33,000  Level Kansas City Center
01:18PM 37.9653 -98.2494 112° Southeast 501 577 33,000  Level Kansas City Center
01:19PM 37.9094 -98.0786 112° Southeast 500 575 33,000  Level Kansas City Center
01:20PM 37.8553 -97.9150 113° Southeast 502 578 33,000  Level Kansas City Center
01:21PM 37.8000 -97.7514 113° Southeast 504 580 33,000  Level Kansas City Center
01:22PM 37.7478 -97.5869 112° Southeast 503 579 33,000  Level Kansas City Center
01:23PM 37.7314 -97.3872 96° East 533 613 33,000  Level Kansas City Center
01:24PM 37.7183 -97.2061 95° East 535 616 33,000  Level Kansas City Center
01:25PM 37.7044 -97.0192 95° East 534 615 33,000  Level Kansas City Center
01:26PM 37.6894 -96.8333 96° East 534 615 33,000  Level Kansas City Center
01:27PM 37.6744 -96.6442 96° East 540 621 33,000  Level Kansas City Center
01:28PM 37.6569 -96.4439 96° East 545 627 33,100  Climbing Kansas City Center
01:29PM 37.6422 -96.2536 96° East 544 626 33,000 -60 Descending Kansas City Center
01:30PM 37.6225 -96.0278 96° East 539 620 33,000  Level Kansas City Center
01:31PM 37.6058 -95.8406 96° East 537 618 33,000 180 Level Kansas City Center
01:32PM 37.5889 -95.6531 96° East 536 617 33,400 420 Climbing Kansas City Center
01:33PM 37.5717 -95.4686 97° East 531 611 33,900 480 Climbing Kansas City Center
01:34PM 37.5544 -95.2819 97° East 531 611 34,400 480 Climbing Kansas City Center
01:35PM 37.5369 -95.0939 97° East 534 615 34,900 240 Climbing Kansas City Center
01:36PM 37.5192 -94.9053 97° East 538 619 35,000  Climbing Kansas City Center
01:37PM 37.5008 -94.7214 97° East 531 611 35,000  Level Kansas City Center
01:38PM 37.4825 -94.5394 97° East 525 604 35,000  Level Kansas City Center
01:39PM 37.4606 -94.3228 97° East 519 597 35,000 180 Level Kansas City Center
01:40PM 37.4428 -94.1436 97° East 516 594 35,400 780 Climbing Kansas City Center
01:41PM 37.4239 -93.9592 97° East 510 587 36,600 720 Climbing Kansas City Center
01:42PM 37.4050 -93.7878 98° East 501 577 37,000 180 Climbing Kansas City Center
01:43PM 37.3872 -93.6200 98° East 489 563 37,000  Level Kansas City Center
01:44PM 37.3692 -93.4500 98° East 489 563 37,000  Level Kansas City Center
01:46PM 37.3619 -93.2772 93° East 491 565 37,000  Level Kansas City Center
01:47PM 37.3811 -93.1039 82° East 498 573 37,000  Level Kansas City Center
01:48PM 37.4014 -92.9311 82° East 500 575 37,000  Level Kansas City Center
01:49PM 37.4208 -92.7564 82° East 503 579 37,000  Level Kansas City Center
01:50PM 37.4433 -92.5439 82° East 508 585 37,000  Level Kansas City Center
01:51PM 37.4633 -92.3658 82° East 512 589 37,000  Level Kansas City Center
01:52PM 37.4814 -92.1881 83° East 514 592 37,000  Level Kansas City Center
01:53PM 37.5006 -92.0136 82° East 512 589 37,000  Level Kansas City Center
01:54PM 37.5183 -91.8392 83° East 508 585 37,000  Level Kansas City Center
01:55PM 37.5358 -91.6672 83° East 503 579 37,000  Level Kansas City Center
01:56PM 37.5558 -91.4603 83° East 499 574 37,000  Level Kansas City Center
01:57PM 37.5744 -91.2853 82° East 500 575 37,000  Level Kansas City Center
01:58PM 37.5911 -91.1097 83° East 503 579 37,000  Level Kansas City Center
01:59PM 37.6078 -90.9339 83° East 504 580 37,000  Level Kansas City Center
02:00PM 37.6253 -90.7600 83° East 507 583 37,000  Level Kansas City Center
02:01PM 37.6417 -90.5819 83° East 512 589 37,000  Level Kansas City Center
02:02PM 37.6603 -90.3711 84° East 509 586 37,000  Level Kansas City Center
02:03PM 37.6767 -90.1944 83° East 509 586 37,000  Level Kansas City Center
02:04PM 37.6961 -90.0172 82° East 511 588 37,000  Level Kansas City Center
02:05PM 37.7169 -89.8400 81° East 513 590 37,000  Level Kansas City Center
02:06PM 37.7372 -89.6617 82° East 515 593 37,000  Level Kansas City Center
02:07PM 37.7553 -89.4811 83° East 517 595 37,000  Level Kansas City Center
02:08PM 37.7775 -89.2686 82° East 518 596 37,000  Level Kansas City Center
02:09PM 37.7961 -89.0889 82° East 515 593 37,000  Level Kansas City Center
02:10PM 37.8133 -88.9108 83° East 513 590 37,000  Level Kansas City Center
02:11PM 37.8283 -88.7347 84° East 509 586 37,000  Level Kansas City Center
02:12PM 37.8511 -88.5664 80° East 500 575 37,000  Level Kansas City Center
02:13PM 37.8717 -88.3531 83° East 507 583 37,000  Level Indianapolis Center
02:14PM 37.8886 -88.1736 83° East 510 587 37,000  Level Indianapolis Center
02:15PM 37.9058 -87.9917 83° East 517 595 37,000  Level Kansas City Center
02:16PM 37.9239 -87.8083 83° East 522 601 37,000  Level Kansas City Center
02:17PM 37.9397 -87.6250 84° East 524 603 37,000  Level Indianapolis Center
02:18PM 37.9567 -87.4444 83° East 520 598 37,000  Level Indianapolis Center
02:19PM 37.9725 -87.2644 84° East 517 595 37,000  Level Indianapolis Center
02:20PM 37.9900 -87.0542 84° East 507 583 37,000  Level Indianapolis Center
02:22PM 38.0044 -86.8833 84° East 495 570 37,000  Level Indianapolis Center
02:23PM 38.0181 -86.7136 84° East 489 563 37,000  Level Indianapolis Center
02:24PM 38.0311 -86.5425 84° East 489 563 37,000 60 Level Indianapolis Center
02:25PM 38.0453 -86.3706 84° East 491 565 37,200  Climbing Indianapolis Center
02:26PM 38.0578 -86.1953 85° East 497 572 37,000 -120 Descending Indianapolis Center
02:27PM 38.0714 -86.0219 84° East 497 572 37,000  Level Indianapolis Center
02:28PM 38.0875 -85.8114 84° East 498 573 37,000  Level Indianapolis Center
02:29PM 38.1006 -85.6375 84° East 498 573 37,000  Level Indianapolis Center
02:30PM 38.1131 -85.4650 85° East 491 565 37,000  Level Indianapolis Center
02:31PM 38.1269 -85.2925 84° East 490 564 37,000  Level Indianapolis Center
02:32PM 38.1403 -85.1228 84° East 485 558 37,000  Level Indianapolis Center
02:33PM 38.1536 -84.9528 84° East 481 554 37,000  Level Indianapolis Center
02:34PM 38.1675 -84.7833 84° East 482 555 37,000  Level Indianapolis Center
02:35PM 38.1803 -84.6150 84° East 479 551 37,000  Level Indianapolis Center
02:36PM 38.1933 -84.4206 85° East 475 547 37,000  Level Indianapolis Center
02:37PM 38.2047 -84.2542 85° East 473 544 37,000  Level Indianapolis Center
02:38PM 38.2169 -84.0856 85° East 474 545 37,000  Level Indianapolis Center
02:39PM 38.2272 -83.9175 85° East 475 547 37,000  Level Indianapolis Center
02:40PM 38.2397 -83.7511 84° East 471 542 37,000  Level Indianapolis Center
02:41PM 38.2500 -83.5864 85° East 466 536 37,000  Level Indianapolis Center
02:42PM 38.2792 -83.4278 77° East 463 533 37,000  Level Indianapolis Center
02:43PM 38.3139 -83.2692 74° East 462 532 37,000  Level Indianapolis Center
02:44PM 38.3531 -83.0839 75° East 463 533 37,000  Level Indianapolis Center
02:45PM 38.3872 -82.9272 74° East 460 529 37,000  Level Indianapolis Center
02:46PM 38.4208 -82.7681 75° East 461 531 37,000  Level Indianapolis Center
02:47PM 38.4531 -82.6081 76° East 464 534 37,000  Level Indianapolis Center
02:48PM 38.4881 -82.4394 75° East 461 531 37,000  Level Indianapolis Center
02:49PM 38.5192 -82.2800 76° East 462 532 37,000  Level Indianapolis Center
02:50PM 38.5186 -82.1164 90° East 468 539 37,000  Level Indianapolis Center
02:51PM 38.4531 -81.9731 120° Southeast 473 544 37,000  Level Indianapolis Center
02:52PM 38.3831 -81.8342 123° Southeast 472 543 37,000  Level Indianapolis Center
02:53PM 38.3528 -81.6781 104° East 466 536 37,000  Level Indianapolis Center
02:54PM 38.3461 -81.4847 92° East 462 532 37,000 -120 Level Indianapolis Center
02:55PM 38.3392 -81.3236 93° East 460 529 36,800 -600 Descending Indianapolis Center
02:56PM 38.3331 -81.1642 93° East 456 525 35,800 -1,020 Descending Indianapolis Center
02:57PM 38.3303 -81.1000 93° East 461 531 35,300 -1,500 Descending Washington Center
02:58PM 38.3239 -80.9197 93° East 460 529 33,600 -1,200 Descending Washington Center
02:59PM 38.3164 -80.7578 93° East 460 529 33,000 -600 Descending Washington Center
03:00PM 38.3086 -80.6011 94° East 460 529 32,400 -1,260 Descending Washington Center
03:01PM 38.3067 -80.4419 91° East 455 524 30,500 -1,680 Descending Washington Center
03:02PM 38.3339 -80.2850 77° East 450 518 29,100 -780 Descending Washington Center
03:03PM 38.3664 -80.1467 73° East 450 518 29,000 -60 Descending Washington Center
03:04PM 38.3992 -79.9922 75° East 450 518 29,000  Level Washington Center
03:05PM 38.4339 -79.8381 74° East 450 518 29,000 -660 Level Washington Center
03:06PM 38.4706 -79.6811 73° East 450 518 27,700 -1,800 Descending Washington Center
03:07PM 38.5053 -79.5183 75° East 450 518 25,400 -1,920 Descending Washington Center
03:08PM 38.5369 -79.3742 74° East 439 505 23,900 -1,740 Descending Washington Center
03:09PM 38.5667 -79.2269 75° East 426 490 22,000 -1,860 Descending Washington Center
03:10PM 38.5911 -79.1006 76° East 421 484 20,200 -1,800 Descending Washington Center
03:11PM 38.6181 -78.9664 76° East 409 471 18,400 -1,800 Descending Washington Center
03:13PM 38.6667 -78.7025 77° East 385 443 14,800 -1,800 Descending Washington Center
03:14PM 38.6931 -78.5761 75° East 374 430 13,000 -1,800 Descending Washington Center
03:15PM 38.7167 -78.4519 76° East 369 425 11,300 -1,200 Descending Washington Center
03:16PM 38.7547 -78.3497 64° Northeast 343 395 10,600 -1,080 Descending Washington Center
03:17PM 38.8189 -78.2719 43° Northeast 314 361 9,200 -1,500 Descending Washington Center
03:18PM 38.8850 -78.1997 40° Northeast 309 356 7,700 -1,380 Descending Washington Center
03:19PM 38.9492 -78.1247 42° Northeast 309 356 6,500 -900 Descending Washington Center
03:20PM 39.0178 -78.0442 42° Northeast 304 350 5,900 -300 Descending Washington Center
03:21PM 39.0403 -77.9486 73° East 281 323 5,900  Level Washington Center
03:22PM 39.0086 -77.8675 117° Southeast 232 267 6,000  Climbing Washington Center
03:23PM 38.9808 -77.7972 117° Southeast 219 252 6,000  Level Washington Center
03:25PM 38.9500 -77.6333 104° East 236 272 6,000  Level Potomac TRACON
03:27PM 38.9474 -77.4599 159° South  Level Estimated
03:27PM 39.0833 -77.5833 159° South 264 304 6,000  Level Potomac TRACON
03:28PM 39.1667 -77.5833 360° North 267 307 6,000 -480 Level Potomac TRACON
03:29PM 39.2333 -77.5833 360° North 261 300 5,100 -540 Descending Potomac TRACON
03:30PM 39.3167 -77.5667 North 268 308 5,000 -60 Descending Potomac TRACON
03:32PM 39.1320 -77.5131 165° South  Level Estimated
03:33PM 39.2333 -77.4500 165° South 161 185 5,000  Level Potomac TRACON
03:34PM 39.1833 -77.4500 180° South 157 181 4,500 -660 Descending Potomac TRACON
03:35PM 39.1500 -77.4500 180° South 158 182 3,700 -840 Descending Potomac TRACON